createdAt,value
2022-11-19T00:07:03.697Z,75.94
2022-11-19T00:09:31.510Z,75.84
2022-11-19T00:12:17.673Z,75.53
2022-11-19T00:14:45.378Z,75.72
2022-11-19T00:17:13.109Z,75.84
2022-11-19T00:19:40.808Z,76.02
2022-11-19T00:22:08.446Z,76.33
2022-11-19T00:24:36.267Z,76.03
2022-11-19T00:27:03.983Z,76.08
2022-11-19T00:29:31.755Z,76.39
2022-11-19T00:31:59.540Z,76.80
2022-11-19T00:34:27.207Z,77.22
2022-11-19T00:36:54.887Z,77.99
2022-11-19T00:39:22.951Z,77.70
2022-11-19T00:41:50.912Z,76.90
2022-11-19T00:44:18.554Z,77.07
2022-11-19T00:46:46.206Z,76.92
2022-11-19T00:49:13.994Z,76.51
2022-11-19T00:51:41.631Z,76.38
2022-11-19T00:54:09.455Z,76.29
2022-11-19T00:56:37.225Z,76.16
2022-11-19T00:59:04.995Z,76.32
2022-11-19T01:01:32.877Z,76.49
2022-11-19T01:04:00.593Z,76.27
2022-11-19T01:06:28.305Z,76.27
2022-11-19T01:08:56.018Z,76.39
2022-11-19T01:11:26.746Z,76.49
2022-11-19T01:13:54.488Z,76.65
2022-11-19T01:16:27.750Z,76.90
2022-11-19T01:18:56.126Z,77.08
2022-11-19T01:21:27.039Z,77.33
2022-11-19T01:23:55.384Z,77.43
2022-11-19T01:26:23.587Z,76.93
2022-11-19T01:28:51.670Z,76.85
2022-11-19T01:31:23.282Z,76.39
2022-11-19T01:33:51.120Z,75.95
2022-11-19T01:36:21.612Z,76.17
2022-11-19T01:38:51.068Z,76.43
2022-11-19T01:41:21.674Z,76.13
2022-11-19T01:43:52.549Z,76.41
2022-11-19T01:46:25.510Z,76.90
2022-11-19T01:49:16.942Z,76.74
2022-11-19T01:52:00.575Z,76.65
2022-11-19T01:54:34.535Z,76.76
2022-11-19T01:57:08.379Z,76.70
2022-11-19T01:59:36.586Z,77.31
2022-11-19T02:02:04.313Z,77.15
2022-11-19T02:04:34.006Z,77.13
2022-11-19T02:07:02.479Z,77.42
2022-11-19T02:09:30.701Z,77.79
2022-11-19T02:12:32.139Z,78.43
2022-11-19T02:15:11.004Z,78.00
2022-11-19T02:17:54.484Z,77.65
2022-11-19T02:20:41.101Z,77.15
2022-11-19T02:23:34.047Z,76.76
2022-11-19T02:26:44.682Z,76.80
2022-11-19T02:29:30.732Z,76.15
2022-11-19T02:32:13.447Z,76.45
2022-11-19T02:34:52.191Z,76.70
2022-11-19T02:37:28.724Z,76.21
2022-11-19T02:40:09.399Z,76.28
2022-11-19T02:43:09.390Z,76.42
2022-11-19T02:45:43.055Z,76.77
2022-11-19T02:48:49.443Z,77.16
2022-11-19T02:51:18.726Z,77.45
2022-11-19T02:53:49.500Z,77.12
2022-11-19T02:56:45.351Z,77.36
2022-11-19T02:59:33.273Z,77.51
2022-11-19T03:02:23.287Z,77.28
2022-11-19T03:04:52.078Z,77.49
2022-11-19T03:07:21.471Z,77.58
2022-11-19T03:09:54.754Z,77.46
2022-11-19T03:12:29.027Z,77.66
2022-11-19T03:15:45.224Z,77.62
2022-11-19T03:18:22.396Z,77.85
2022-11-19T03:21:01.592Z,77.61
2022-11-19T03:23:37.681Z,77.52
2022-11-19T03:26:18.498Z,77.58
2022-11-19T03:28:48.478Z,77.44
2022-11-19T03:31:18.018Z,77.76
2022-11-19T03:33:50.270Z,78.05
2022-11-19T03:36:23.346Z,78.06
2022-11-19T03:38:58.042Z,78.13
2022-11-19T03:41:27.395Z,78.07
2022-11-19T03:43:58.449Z,77.64
2022-11-19T03:46:28.963Z,77.55
2022-11-19T03:48:59.638Z,77.35
2022-11-19T03:51:47.273Z,77.59
2022-11-19T03:54:16.095Z,77.72
2022-11-19T03:56:45.625Z,77.80
2022-11-19T03:59:13.445Z,77.53
2022-11-19T04:01:42.136Z,77.75
2022-11-19T04:04:28.719Z,78.01
2022-11-19T04:06:56.437Z,78.17
2022-11-19T04:09:24.090Z,77.85
2022-11-19T04:14:18.263Z,77.72
2022-11-19T04:16:46.012Z,78.22
2022-11-19T04:19:13.637Z,78.47
2022-11-19T04:21:41.273Z,78.77
2022-11-19T04:24:09.194Z,78.46
2022-11-19T04:26:36.841Z,78.49
2022-11-19T04:29:04.698Z,78.23
2022-11-19T04:31:32.417Z,78.33
2022-11-19T04:34:00.155Z,78.38
2022-11-19T04:36:27.921Z,78.45
2022-11-19T04:38:55.646Z,78.32
2022-11-19T04:41:23.638Z,78.45
2022-11-19T04:43:51.512Z,78.50
2022-11-19T04:46:19.143Z,79.13
2022-11-19T04:48:46.780Z,78.82
2022-11-19T04:51:14.471Z,78.92
2022-11-19T04:53:42.142Z,78.99
2022-11-19T04:56:10.218Z,79.52
2022-11-19T04:58:37.953Z,79.56
2022-11-19T05:01:06.590Z,79.93
2022-11-19T05:03:34.459Z,80.24
2022-11-19T05:06:02.298Z,80.53
2022-11-19T05:08:30.044Z,80.12
2022-11-19T05:10:57.724Z,80.15
2022-11-19T05:13:25.408Z,80.68
2022-11-19T05:15:53.178Z,80.09
2022-11-19T05:18:21.184Z,79.85
2022-11-19T05:20:48.829Z,80.32
2022-11-19T05:23:16.453Z,80.47
2022-11-19T05:25:44.163Z,80.82
2022-11-19T05:28:11.795Z,80.98
2022-11-19T05:30:39.443Z,81.36
2022-11-19T05:33:07.189Z,81.18
2022-11-19T05:35:34.863Z,81.01
2022-11-19T05:38:02.582Z,81.06
2022-11-19T05:40:30.253Z,81.14
2022-11-19T05:43:04.369Z,81.28
2022-11-19T05:45:32.308Z,81.79
2022-11-19T05:48:00.083Z,82.06
2022-11-19T05:50:27.908Z,81.46
2022-11-19T05:52:55.646Z,80.95
2022-11-19T05:55:23.368Z,81.57
2022-11-19T05:57:51.229Z,81.62
2022-11-19T06:00:19.150Z,81.22
2022-11-19T06:02:46.852Z,81.23
2022-11-19T06:05:14.663Z,81.65
2022-11-19T06:12:01.164Z,82.31
2022-11-19T06:14:28.885Z,81.97
2022-11-19T06:17:00.058Z,81.72
2022-11-19T06:19:27.771Z,82.14
2022-11-19T06:21:55.443Z,82.68
2022-11-19T06:24:23.109Z,82.35
2022-11-19T06:26:50.880Z,81.49
2022-11-19T06:29:19.577Z,81.24
2022-11-19T06:31:47.529Z,80.94
2022-11-19T06:34:15.306Z,80.95
2022-11-19T06:36:49.120Z,81.63
2022-11-19T06:39:19.204Z,81.51
2022-11-19T06:41:48.760Z,81.17
2022-11-19T06:44:16.691Z,81.57
2022-11-19T06:46:44.296Z,81.28
2022-11-19T06:49:16.856Z,82.00
2022-11-19T06:51:47.665Z,82.60
2022-11-19T06:54:15.527Z,82.36
2022-11-19T06:56:43.159Z,81.58
2022-11-19T06:59:10.824Z,82.01
2022-11-19T07:01:38.509Z,82.52
2022-11-19T07:04:06.146Z,82.68
2022-11-19T07:06:33.850Z,82.56
2022-11-19T07:09:01.596Z,82.17
2022-11-19T07:11:30.099Z,82.06
2022-11-19T07:13:58.083Z,81.83
2022-11-19T07:16:31.801Z,81.99
2022-11-19T07:19:04.125Z,81.79
2022-11-19T07:21:32.468Z,82.30
2022-11-19T07:24:03.820Z,82.22
2022-11-19T07:26:33.021Z,81.55
2022-11-19T07:29:04.900Z,81.35
2022-11-19T07:31:33.806Z,81.72
2022-11-19T07:34:01.639Z,81.65
2022-11-19T07:36:29.990Z,81.63
2022-11-19T07:38:58.054Z,81.68
2022-11-19T07:41:53.182Z,81.96
2022-11-19T07:44:20.944Z,82.56
2022-11-19T07:46:48.579Z,82.80
2022-11-19T07:49:16.349Z,82.83
2022-11-19T07:51:44.767Z,82.63
2022-11-19T07:54:14.160Z,82.34
2022-11-19T07:56:42.492Z,82.11
2022-11-19T07:59:10.491Z,81.73
2022-11-19T08:01:38.572Z,81.80
2022-11-19T08:04:06.436Z,81.34
2022-11-19T08:06:35.243Z,81.57
2022-11-19T08:09:04.439Z,81.49
2022-11-19T08:11:32.116Z,81.81
2022-11-19T08:14:03.281Z,81.70
2022-11-19T08:16:51.634Z,81.61
2022-11-19T08:19:20.348Z,81.77
2022-11-19T08:21:48.319Z,81.85
2022-11-19T08:24:18.770Z,81.69
2022-11-19T08:26:47.518Z,81.38
2022-11-19T08:29:17.130Z,81.28
2022-11-19T08:31:46.520Z,80.60
2022-11-19T08:34:15.201Z,80.09
2022-11-19T08:36:43.429Z,79.42
2022-11-19T08:39:11.247Z,78.92
2022-11-19T08:41:57.766Z,78.24
2022-11-19T08:44:26.311Z,76.68
2022-11-19T08:46:54.052Z,76.41
2022-11-19T08:49:21.748Z,75.21
2022-11-19T08:51:49.544Z,71.40
2022-11-19T08:54:17.866Z,72.76
2022-11-19T08:56:45.729Z,72.87
2022-11-19T08:59:13.391Z,71.70
2022-11-19T09:01:41.116Z,69.73
2022-11-19T09:04:08.783Z,68.66
2022-11-19T09:06:36.537Z,71.47
2022-11-19T09:09:04.880Z,72.13
2022-11-19T09:11:39.861Z,70.30
2022-11-19T09:14:10.377Z,70.00
2022-11-19T09:16:38.594Z,71.34
2022-11-19T09:19:06.235Z,70.28
2022-11-19T09:21:34.027Z,69.64
2022-11-19T09:24:01.779Z,70.20
2022-11-19T09:26:29.474Z,68.92
2022-11-19T09:28:57.103Z,70.42
2022-11-19T09:31:24.861Z,68.79
2022-11-19T09:33:54.023Z,70.94
2022-11-19T09:36:21.779Z,70.18
2022-11-19T09:38:49.614Z,70.33
2022-11-19T09:41:17.201Z,70.02
2022-11-19T09:43:44.829Z,71.83
2022-11-19T09:46:36.706Z,72.50
2022-11-19T09:49:11.846Z,72.07
2022-11-19T09:51:42.661Z,72.03
2022-11-19T09:54:20.131Z,71.85
2022-11-19T09:56:50.193Z,72.56
2022-11-19T09:59:38.065Z,72.50
2022-11-19T10:02:24.738Z,72.73
2022-11-19T10:04:53.294Z,72.51
2022-11-19T10:08:13.178Z,72.72
2022-11-19T10:11:02.164Z,73.11
2022-11-19T10:13:43.264Z,72.82
2022-11-19T10:16:10.899Z,72.79
2022-11-19T10:18:47.806Z,72.23
2022-11-19T10:21:33.185Z,71.49
2022-11-19T10:24:27.057Z,71.15
2022-11-19T10:27:04.357Z,71.27
2022-11-19T10:29:38.153Z,69.99
2022-11-19T10:32:30.849Z,70.16
2022-11-19T10:35:06.999Z,65.33
2022-11-19T10:37:47.653Z,66.88
2022-11-19T10:40:19.325Z,67.97
2022-11-19T10:42:54.276Z,66.93
2022-11-19T10:45:25.088Z,68.63
2022-11-19T10:47:56.806Z,68.25
2022-11-19T10:50:25.599Z,66.59
2022-11-19T10:53:24.971Z,67.57
2022-11-19T10:56:00.498Z,68.21
2022-11-19T10:58:40.540Z,68.97
2022-11-19T11:01:27.136Z,69.02
2022-11-19T11:04:06.481Z,68.13
2022-11-19T11:07:07.189Z,66.44
2022-11-19T11:09:36.221Z,67.30
2022-11-19T11:12:35.480Z,67.81
2022-11-19T11:15:19.867Z,67.16
2022-11-19T11:17:59.841Z,65.04
2022-11-19T11:20:29.101Z,66.47
2022-11-19T11:23:11.911Z,66.49
2022-11-19T11:25:40.493Z,67.39
2022-11-19T11:28:13.208Z,66.56
2022-11-19T11:30:59.678Z,67.08
2022-11-19T11:33:29.217Z,65.18
2022-11-19T11:36:04.924Z,66.83
2022-11-19T11:38:42.602Z,66.54
2022-11-19T11:42:03.796Z,66.69
2022-11-19T11:44:08.529Z,67.35
2022-11-19T11:46:53.402Z,65.52
2022-11-19T11:49:29.413Z,66.78
2022-11-19T11:52:03.151Z,65.79
2022-11-19T11:54:31.369Z,66.33
2022-11-19T11:57:23.515Z,66.72
2022-11-19T11:59:51.425Z,66.51
2022-11-19T12:02:33.802Z,66.52
2022-11-19T12:05:07.683Z,66.68
2022-11-19T12:08:00.368Z,65.68
2022-11-19T12:10:47.965Z,66.41
2022-11-19T12:13:33.770Z,66.68
2022-11-19T12:16:19.725Z,66.44
2022-11-19T12:19:05.510Z,65.68
2022-11-19T12:22:10.626Z,65.51
2022-11-19T12:24:57.078Z,65.79
2022-11-19T12:27:47.105Z,65.69
2022-11-19T12:30:19.363Z,65.08
2022-11-19T12:33:04.535Z,64.76
2022-11-19T12:35:51.047Z,64.63
2022-11-19T12:38:58.113Z,64.77
2022-11-19T12:41:31.623Z,65.65
2022-11-19T12:44:00.545Z,65.28
2022-11-19T12:46:37.250Z,65.83
2022-11-19T12:49:20.162Z,65.89
2022-11-19T12:51:54.025Z,65.51
2022-11-19T12:55:04.377Z,65.76
2022-11-19T12:57:51.914Z,65.71
2022-11-19T13:00:25.049Z,65.36
2022-11-19T13:03:04.651Z,65.65
2022-11-19T13:05:40.978Z,65.90
2022-11-19T13:08:13.606Z,65.78
2022-11-19T13:11:17.615Z,65.49
2022-11-19T13:14:00.040Z,64.89
2022-11-19T13:16:30.738Z,65.29
2022-11-19T13:19:14.909Z,65.57
2022-11-19T13:21:56.404Z,65.15
2022-11-19T13:24:32.636Z,65.00
2022-11-19T13:27:04.989Z,64.68
2022-11-19T13:29:47.876Z,64.64
2022-11-19T13:32:38.988Z,64.82
2022-11-19T13:35:18.879Z,64.93
2022-11-19T13:38:19.690Z,64.75
2022-11-19T13:41:04.549Z,64.00
2022-11-19T13:43:50.867Z,64.82
2022-11-19T13:46:25.776Z,64.54
2022-11-19T13:49:11.705Z,64.61
2022-11-19T13:51:52.276Z,64.18
2022-11-19T13:54:26.329Z,63.72
2022-11-19T13:56:58.063Z,63.98
2022-11-19T13:59:31.658Z,64.74
2022-11-19T14:02:24.308Z,64.58
2022-11-19T14:05:16.264Z,64.48
2022-11-19T14:07:52.944Z,64.81
2022-11-19T14:10:26.318Z,65.25
2022-11-19T14:13:29.612Z,65.47
2022-11-19T14:16:38.081Z,65.12
2022-11-19T14:19:34.302Z,65.73
2022-11-19T14:22:51.019Z,65.78
2022-11-19T14:26:04.339Z,66.12
2022-11-19T14:28:41.244Z,66.36
2022-11-19T14:31:09.470Z,65.86
2022-11-19T14:33:42.882Z,66.45
2022-11-19T14:36:13.200Z,66.46
2022-11-19T14:38:49.885Z,66.31
2022-11-19T14:41:26.794Z,66.62
2022-11-19T14:44:10.871Z,67.02
2022-11-19T14:46:48.181Z,66.97
2022-11-19T14:49:37.938Z,67.12
2022-11-19T14:52:22.585Z,66.80
2022-11-19T14:55:04.898Z,66.87
2022-11-19T14:57:37.713Z,66.80
2022-11-19T15:00:16.332Z,67.46
2022-11-19T15:02:51.153Z,68.30
2022-11-19T15:05:22.127Z,68.40
2022-11-19T15:07:56.164Z,68.68
2022-11-19T15:10:30.050Z,68.82
2022-11-19T15:13:18.429Z,68.76
2022-11-19T15:15:49.232Z,69.26
2022-11-19T15:18:35.846Z,69.10
2022-11-19T15:21:24.589Z,69.44
2022-11-19T15:24:02.172Z,70.56
2022-11-19T15:26:38.665Z,70.26
2022-11-19T15:29:32.477Z,70.27
2022-11-19T15:32:18.855Z,70.05
2022-11-19T15:35:14.484Z,70.36
2022-11-19T15:37:57.178Z,70.73
2022-11-19T15:40:30.736Z,70.61
2022-11-19T15:43:04.361Z,70.05
2022-11-19T15:45:39.585Z,70.06
2022-11-19T15:48:16.217Z,70.30
2022-11-19T15:50:44.726Z,70.78
2022-11-19T15:53:21.152Z,70.31
2022-11-19T15:55:56.833Z,70.65
2022-11-19T15:58:52.359Z,71.77
2022-11-19T16:01:22.049Z,72.52
2022-11-19T16:03:53.406Z,72.63
2022-11-19T16:06:25.565Z,71.99
2022-11-19T16:08:55.530Z,71.34
2022-11-19T16:11:45.351Z,71.23
2022-11-19T16:14:38.023Z,71.07
2022-11-19T16:17:41.740Z,70.67
2022-11-19T16:20:11.595Z,70.87
2022-11-19T16:22:42.041Z,70.87
2022-11-19T16:25:24.700Z,70.87
2022-11-19T16:27:57.029Z,70.95
2022-11-19T16:30:27.360Z,71.04
2022-11-19T16:32:59.624Z,71.55
2022-11-19T16:35:32.416Z,71.18
2022-11-19T16:38:01.567Z,71.07
2022-11-19T16:40:49.501Z,71.19
2022-11-19T16:43:18.555Z,71.56
2022-11-19T16:45:47.530Z,71.82
2022-11-19T16:48:50.764Z,71.67
2022-11-19T16:51:54.479Z,71.92
2022-11-19T16:54:46.649Z,72.04
2022-11-19T16:57:24.632Z,72.14
2022-11-19T17:00:01.593Z,72.02
2022-11-19T17:02:36.151Z,72.42
2022-11-19T17:05:13.055Z,72.36
2022-11-19T17:07:43.369Z,72.47
2022-11-19T17:10:11.396Z,73.13
2022-11-19T17:12:58.751Z,72.59
2022-11-19T17:15:46.525Z,72.75
2022-11-19T17:18:18.034Z,73.06
2022-11-19T17:20:45.698Z,73.72
2022-11-19T17:23:19.395Z,74.88
2022-11-19T17:26:01.013Z,75.06
2022-11-19T17:35:29.566Z,73.73
2022-11-19T17:38:01.074Z,73.45
2022-11-19T17:40:28.743Z,73.64
2022-11-19T17:43:14.831Z,73.35
2022-11-19T17:45:45.299Z,73.77
2022-11-19T17:48:22.976Z,73.69
2022-11-19T17:50:51.858Z,74.65
2022-11-19T17:53:19.521Z,74.48
2022-11-19T17:55:49.541Z,74.54
2022-11-19T17:58:17.092Z,74.60
2022-11-19T18:00:45.072Z,74.77
2022-11-19T18:03:14.323Z,75.02
2022-11-19T18:05:47.186Z,75.40
2022-11-19T18:08:16.082Z,75.90
2022-11-19T18:10:46.803Z,76.35
2022-11-19T18:13:34.666Z,76.88
2022-11-19T18:16:02.330Z,76.49
2022-11-19T18:18:30.021Z,75.98
2022-11-19T18:21:02.123Z,75.72
2022-11-19T18:23:30.145Z,75.70
2022-11-19T18:25:58.063Z,75.30
2022-11-19T18:28:25.967Z,75.11
2022-11-19T18:30:53.959Z,75.11
2022-11-19T18:36:25.966Z,75.03
2022-11-19T18:38:55.698Z,75.37
2022-11-19T18:41:23.427Z,75.59
2022-11-19T18:44:10.419Z,75.27
2022-11-19T18:46:38.090Z,75.36
2022-11-19T18:49:05.947Z,75.46
2022-11-19T18:51:34.309Z,75.71
2022-11-19T18:54:02.110Z,75.48
2022-11-19T18:56:31.375Z,75.80
2022-11-19T18:59:03.397Z,75.74
2022-11-19T19:01:33.546Z,76.21
2022-11-19T19:04:02.083Z,76.50
2022-11-19T19:06:32.422Z,76.89
2022-11-19T19:09:04.858Z,77.55
2022-11-19T19:11:53.306Z,77.17
2022-11-19T19:14:25.472Z,76.86
2022-11-19T19:16:53.822Z,76.62
2022-11-19T19:19:21.913Z,76.24
2022-11-19T19:21:50.101Z,76.35
2022-11-19T19:24:17.972Z,76.04
2022-11-19T19:26:46.337Z,75.70
2022-11-19T19:29:15.539Z,75.87
2022-11-19T19:31:44.137Z,75.99
2022-11-19T19:34:13.442Z,76.29
2022-11-19T19:36:41.337Z,76.25
2022-11-19T19:39:09.198Z,76.57
2022-11-19T19:41:36.945Z,76.44
2022-11-19T19:44:05.707Z,76.70
2022-11-19T19:46:33.926Z,77.13
2022-11-19T19:49:03.869Z,77.46
2022-11-19T19:51:32.747Z,77.67
2022-11-19T19:54:02.149Z,77.04
2022-11-19T19:56:31.942Z,76.71
2022-11-19T19:59:00.972Z,76.14
2022-11-19T20:01:33.352Z,76.20
2022-11-19T20:04:04.797Z,75.95
2022-11-19T20:06:33.949Z,75.86
2022-11-19T20:09:08.163Z,76.00
2022-11-19T20:11:39.061Z,75.81
2022-11-19T20:14:07.499Z,75.83
2022-11-19T20:16:43.044Z,75.98
2022-11-19T20:19:15.114Z,75.93
2022-11-19T20:21:43.027Z,75.70
2022-11-19T20:24:13.474Z,75.93
2022-11-19T20:26:42.525Z,75.88
2022-11-19T20:29:13.856Z,76.17
2022-11-19T20:31:49.582Z,76.33
2022-11-19T20:34:17.806Z,76.08
2022-11-19T20:36:46.451Z,76.19
2022-11-19T20:39:14.952Z,76.20
2022-11-19T20:42:01.845Z,76.54
2022-11-19T20:44:30.401Z,77.66
2022-11-19T20:47:01.993Z,78.02
2022-11-19T20:49:38.078Z,78.18
2022-11-19T20:52:08.439Z,77.34
2022-11-19T20:54:36.498Z,77.29
2022-11-19T20:57:04.331Z,77.00
2022-11-19T20:59:39.553Z,76.80
2022-11-19T21:02:09.969Z,76.81
2022-11-19T21:04:37.989Z,77.05
2022-11-19T21:07:06.547Z,76.91
2022-11-19T21:09:34.375Z,77.05
2022-11-19T21:12:02.018Z,76.55
2022-11-19T21:14:30.576Z,77.21
2022-11-19T21:16:58.437Z,76.99
2022-11-19T21:19:26.240Z,77.14
2022-11-19T21:21:53.913Z,77.19
2022-11-19T21:24:21.700Z,77.32
2022-11-19T21:26:49.487Z,77.66
2022-11-19T21:29:17.139Z,78.02
2022-11-19T21:31:47.245Z,78.32
2022-11-19T21:34:17.568Z,78.11
2022-11-19T21:36:47.013Z,77.58
2022-11-19T21:39:17.272Z,77.43
2022-11-19T21:41:45.305Z,77.16
2022-11-19T21:44:16.700Z,77.08
2022-11-19T21:46:47.386Z,77.07
2022-11-19T21:49:15.220Z,76.63
2022-11-19T21:51:43.369Z,76.90
2022-11-19T21:54:11.294Z,76.73
2022-11-19T21:56:39.285Z,76.88
2022-11-19T21:59:07.530Z,76.94
2022-11-19T22:01:35.460Z,76.82
2022-11-19T22:04:03.345Z,76.79
2022-11-19T22:06:32.437Z,76.96
2022-11-19T22:09:00.260Z,76.68
2022-11-19T22:11:31.209Z,77.10
2022-11-19T22:14:05.134Z,77.73
2022-11-19T22:16:35.791Z,78.19
2022-11-19T22:19:05.542Z,78.41
2022-11-19T22:21:34.397Z,78.97
2022-11-19T22:24:02.430Z,78.91
2022-11-19T22:26:30.851Z,78.89
2022-11-19T22:28:58.646Z,78.96
2022-11-19T22:31:26.864Z,78.21
2022-11-19T22:33:56.348Z,77.79
2022-11-19T22:36:24.249Z,77.91
2022-11-19T22:38:52.291Z,77.67
2022-11-19T22:41:22.331Z,77.44
2022-11-19T22:43:50.127Z,77.36
2022-11-19T22:46:18.468Z,77.65
2022-11-19T22:48:46.201Z,77.25
2022-11-19T22:51:13.880Z,77.16
2022-11-19T22:53:42.125Z,77.22
2022-11-19T22:56:12.133Z,77.12
2022-11-19T22:58:40.122Z,77.72
2022-11-19T23:01:15.478Z,77.62
2022-11-19T23:03:43.281Z,77.84
2022-11-19T23:06:11.103Z,78.18
2022-11-19T23:08:38.764Z,78.75
2022-11-19T23:11:07.524Z,79.07
2022-11-19T23:13:39.253Z,79.34
2022-11-19T23:16:16.080Z,79.55
2022-11-19T23:18:49.401Z,79.70
2022-11-19T23:21:20.086Z,79.19
2022-11-19T23:23:48.285Z,78.71
2022-11-19T23:26:17.948Z,78.60
2022-11-19T23:28:45.955Z,78.38
2022-11-19T23:31:19.667Z,78.03
2022-11-19T23:33:48.369Z,78.22
2022-11-19T23:36:18.944Z,78.24
2022-11-19T23:38:47.479Z,78.17
2022-11-19T23:41:17.798Z,78.72
2022-11-19T23:43:46.769Z,78.91
2022-11-19T23:46:20.541Z,78.86
2022-11-19T23:48:49.874Z,78.79
2022-11-19T23:51:20.191Z,79.27
2022-11-19T23:53:48.410Z,79.85
2022-11-19T23:56:18.082Z,80.78
2022-11-19T23:58:46.098Z,81.04
